sensor_id;sensor_type;location;lat;lon;timestamp;P1;durP1;ratioP1;P2;durP2;ratioP2
6424;SDS011;12193;42.642;23.384;2022-09-09T00:00:47;14.43;;;9.03;;
6424;SDS011;12193;42.642;23.384;2022-09-09T00:03:23;11.67;;;9.20;;
6424;SDS011;12193;42.642;23.384;2022-09-09T00:05:59;12.03;;;9.43;;
6424;SDS011;12193;42.642;23.384;2022-09-09T03:08:42;12.07;;;9.43;;
6424;SDS011;12193;42.642;23.384;2022-09-09T03:11:12;12.77;;;9.07;;
6424;SDS011;12193;42.642;23.384;2022-09-09T03:13:41;15.07;;;10.23;;
6424;SDS011;12193;42.642;23.384;2022-09-09T03:16:11;17.57;;;10.23;;
6424;SDS011;12193;42.642;23.384;2022-09-09T03:18:40;17.70;;;11.60;;
6424;SDS011;12193;42.642;23.384;2022-09-09T03:21:11;15.17;;;10.50;;
6424;SDS011;12193;42.642;23.384;2022-09-09T03:23:43;17.47;;;11.30;;
6424;SDS011;12193;42.642;23.384;2022-09-09T03:26:13;17.70;;;11.17;;
6424;SDS011;12193;42.642;23.384;2022-09-09T03:28:43;20.00;;;12.43;;
6424;SDS011;12193;42.642;23.384;2022-09-09T03:31:13;15.87;;;11.07;;
6424;SDS011;12193;42.642;23.384;2022-09-09T03:33:42;16.10;;;11.77;;
6424;SDS011;12193;42.642;23.384;2022-09-09T03:36:11;17.43;;;11.87;;
6424;SDS011;12193;42.642;23.384;2022-09-09T03:38:43;18.87;;;12.23;;
6424;SDS011;12193;42.642;23.384;2022-09-09T03:41:12;17.13;;;12.23;;
6424;SDS011;12193;42.642;23.384;2022-09-09T03:43:42;16.70;;;12.20;;
6424;SDS011;12193;42.642;23.384;2022-09-09T03:46:11;16.70;;;12.57;;
6424;SDS011;12193;42.642;23.384;2022-09-09T03:48:41;19.60;;;12.30;;
6424;SDS011;12193;42.642;23.384;2022-09-09T03:51:10;18.03;;;12.50;;
6424;SDS011;12193;42.642;23.384;2022-09-09T03:53:39;17.93;;;12.37;;
6424;SDS011;12193;42.642;23.384;2022-09-09T03:56:11;28.77;;;13.30;;
6424;SDS011;12193;42.642;23.384;2022-09-09T03:58:41;20.30;;;12.80;;
6424;SDS011;12193;42.642;23.384;2022-09-09T04:01:10;20.00;;;13.50;;
6424;SDS011;12193;42.642;23.384;2022-09-09T04:03:43;18.40;;;13.23;;
6424;SDS011;12193;42.642;23.384;2022-09-09T04:06:13;23.70;;;12.10;;
6424;SDS011;12193;42.642;23.384;2022-09-09T04:08:43;16.63;;;12.70;;
6424;SDS011;12193;42.642;23.384;2022-09-09T04:11:17;17.17;;;12.60;;
6424;SDS011;12193;42.642;23.384;2022-09-09T04:13:47;19.87;;;12.70;;
6424;SDS011;12193;42.642;23.384;2022-09-09T04:16:17;22.13;;;13.23;;
6424;SDS011;12193;42.642;23.384;2022-09-09T04:18:46;21.33;;;12.80;;
6424;SDS011;12193;42.642;23.384;2022-09-09T04:21:16;18.97;;;12.87;;
6424;SDS011;12193;42.642;23.384;2022-09-09T04:23:45;23.53;;;12.73;;
6424;SDS011;12193;42.642;23.384;2022-09-09T04:26:17;15.10;;;11.43;;
6424;SDS011;12193;42.642;23.384;2022-09-09T04:28:47;16.70;;;11.37;;
6424;SDS011;12193;42.642;23.384;2022-09-09T04:31:17;15.87;;;11.07;;
6424;SDS011;12193;42.642;23.384;2022-09-09T04:33:49;14.87;;;9.77;;
6424;SDS011;12193;42.642;23.384;2022-09-09T04:36:18;17.83;;;10.57;;
6424;SDS011;12193;42.642;23.384;2022-09-09T04:38:47;14.80;;;10.23;;
6424;SDS011;12193;42.642;23.384;2022-09-09T04:41:20;14.90;;;10.40;;
6424;SDS011;12193;42.642;23.384;2022-09-09T04:43:49;12.33;;;9.40;;
6424;SDS011;12193;42.642;23.384;2022-09-09T04:46:19;14.70;;;9.90;;
6424;SDS011;12193;42.642;23.384;2022-09-09T04:48:49;15.13;;;9.47;;
6424;SDS011;12193;42.642;23.384;2022-09-09T04:51:19;13.93;;;9.53;;
6424;SDS011;12193;42.642;23.384;2022-09-09T04:53:48;13.60;;;9.23;;
6424;SDS011;12193;42.642;23.384;2022-09-09T04:56:22;14.47;;;9.83;;
6424;SDS011;12193;42.642;23.384;2022-09-09T04:58:52;14.80;;;10.00;;
6424;SDS011;12193;42.642;23.384;2022-09-09T05:01:22;15.57;;;10.10;;
6424;SDS011;12193;42.642;23.384;2022-09-09T05:03:53;12.70;;;9.53;;
6424;SDS011;12193;42.642;23.384;2022-09-09T05:06:22;12.00;;;9.70;;
6424;SDS011;12193;42.642;23.384;2022-09-09T05:08:51;17.00;;;9.60;;
6424;SDS011;12193;42.642;23.384;2022-09-09T05:11:24;12.80;;;9.60;;
6424;SDS011;12193;42.642;23.384;2022-09-09T05:13:55;15.83;;;10.77;;
6424;SDS011;12193;42.642;23.384;2022-09-09T05:16:25;13.07;;;9.50;;
6424;SDS011;12193;42.642;23.384;2022-09-09T05:18:54;12.73;;;9.87;;
6424;SDS011;12193;42.642;23.384;2022-09-09T05:21:24;17.53;;;9.10;;
6424;SDS011;12193;42.642;23.384;2022-09-09T05:23:55;12.13;;;9.07;;
6424;SDS011;12193;42.642;23.384;2022-09-09T05:26:28;16.43;;;9.13;;
6424;SDS011;12193;42.642;23.384;2022-09-09T05:28:58;15.00;;;8.63;;
6424;SDS011;12193;42.642;23.384;2022-09-09T05:31:29;13.23;;;8.10;;
6424;SDS011;12193;42.642;23.384;2022-09-09T05:34:00;11.33;;;8.23;;
6424;SDS011;12193;42.642;23.384;2022-09-09T05:36:29;10.37;;;8.03;;
6424;SDS011;12193;42.642;23.384;2022-09-09T05:38:58;12.07;;;8.30;;
6424;SDS011;12193;42.642;23.384;2022-09-09T05:41:30;10.73;;;7.80;;
6424;SDS011;12193;42.642;23.384;2022-09-09T05:44:01;9.70;;;7.40;;
6424;SDS011;12193;42.642;23.384;2022-09-09T05:46:31;9.10;;;7.07;;
6424;SDS011;12193;42.642;23.384;2022-09-09T05:49:01;9.90;;;7.33;;
6424;SDS011;12193;42.642;23.384;2022-09-09T05:51:31;10.80;;;6.80;;
6424;SDS011;12193;42.642;23.384;2022-09-09T05:54:01;8.70;;;6.47;;
6424;SDS011;12193;42.642;23.384;2022-09-09T05:56:33;7.67;;;6.43;;
6424;SDS011;12193;42.642;23.384;2022-09-09T05:59:02;13.60;;;6.60;;
6424;SDS011;12193;42.642;23.384;2022-09-09T06:01:33;11.10;;;6.80;;
6424;SDS011;12193;42.642;23.384;2022-09-09T06:04:06;10.00;;;6.97;;
6424;SDS011;12193;42.642;23.384;2022-09-09T06:06:36;8.87;;;6.63;;
6424;SDS011;12193;42.642;23.384;2022-09-09T06:09:08;10.63;;;7.00;;
6424;SDS011;12193;42.642;23.384;2022-09-09T06:11:41;11.83;;;6.60;;
6424;SDS011;12193;42.642;23.384;2022-09-09T06:14:11;12.73;;;7.17;;
6424;SDS011;12193;42.642;23.384;2022-09-09T06:16:40;10.77;;;6.73;;
6424;SDS011;12193;42.642;23.384;2022-09-09T06:19:11;8.07;;;6.73;;
6424;SDS011;12193;42.642;23.384;2022-09-09T06:21:40;12.47;;;6.63;;
6424;SDS011;12193;42.642;23.384;2022-09-09T06:24:10;14.67;;;8.13;;
6424;SDS011;12193;42.642;23.384;2022-09-09T06:26:45;38.17;;;8.60;;
6424;SDS011;12193;42.642;23.384;2022-09-09T06:29:15;11.70;;;6.70;;
6424;SDS011;12193;42.642;23.384;2022-09-09T06:31:44;10.87;;;6.37;;
6424;SDS011;12193;42.642;23.384;2022-09-09T06:34:14;11.83;;;7.10;;
6424;SDS011;12193;42.642;23.384;2022-09-09T06:36:43;9.83;;;7.00;;
6424;SDS011;12193;42.642;23.384;2022-09-09T06:39:12;10.90;;;7.10;;
6424;SDS011;12193;42.642;23.384;2022-09-09T06:41:41;15.83;;;7.10;;
6424;SDS011;12193;42.642;23.384;2022-09-09T06:44:14;15.93;;;7.37;;
6424;SDS011;12193;42.642;23.384;2022-09-09T06:46:43;13.03;;;7.73;;
6424;SDS011;12193;42.642;23.384;2022-09-09T06:49:13;13.67;;;8.57;;
6424;SDS011;12193;42.642;23.384;2022-09-09T06:51:43;11.60;;;8.07;;
6424;SDS011;12193;42.642;23.384;2022-09-09T06:54:12;19.30;;;8.50;;
6424;SDS011;12193;42.642;23.384;2022-09-09T06:56:44;15.97;;;8.30;;
6424;SDS011;12193;42.642;23.384;2022-09-09T06:59:14;17.93;;;8.07;;
6424;SDS011;12193;42.642;23.384;2022-09-09T07:01:44;13.80;;;9.00;;
6424;SDS011;12193;42.642;23.384;2022-09-09T07:04:13;12.40;;;8.07;;
6424;SDS011;12193;42.642;23.384;2022-09-09T07:06:43;10.87;;;8.70;;
6424;SDS011;12193;42.642;23.384;2022-09-09T07:09:13;14.67;;;8.30;;
6424;SDS011;12193;42.642;23.384;2022-09-09T07:11:47;11.90;;;8.57;;
6424;SDS011;12193;42.642;23.384;2022-09-09T07:14:18;13.13;;;8.27;;
6424;SDS011;12193;42.642;23.384;2022-09-09T07:16:49;16.50;;;9.03;;
6424;SDS011;12193;42.642;23.384;2022-09-09T07:19:18;10.30;;;7.33;;
6424;SDS011;12193;42.642;23.384;2022-09-09T07:21:47;14.97;;;7.60;;
6424;SDS011;12193;42.642;23.384;2022-09-09T07:24:16;10.93;;;7.23;;
6424;SDS011;12193;42.642;23.384;2022-09-09T07:26:48;12.07;;;7.10;;
6424;SDS011;12193;42.642;23.384;2022-09-09T07:29:18;12.20;;;7.47;;
6424;SDS011;12193;42.642;23.384;2022-09-09T07:31:47;14.07;;;9.43;;
6424;SDS011;12193;42.642;23.384;2022-09-09T07:34:17;14.90;;;7.67;;
6424;SDS011;12193;42.642;23.384;2022-09-09T07:36:46;11.93;;;7.40;;
6424;SDS011;12193;42.642;23.384;2022-09-09T07:39:16;11.73;;;6.77;;
6424;SDS011;12193;42.642;23.384;2022-09-09T07:41:48;16.43;;;7.20;;
6424;SDS011;12193;42.642;23.384;2022-09-09T07:44:21;8.53;;;6.53;;
6424;SDS011;12193;42.642;23.384;2022-09-09T07:46:52;10.80;;;7.17;;
6424;SDS011;12193;42.642;23.384;2022-09-09T07:49:22;8.33;;;6.53;;
6424;SDS011;12193;42.642;23.384;2022-09-09T07:51:51;11.53;;;6.90;;
6424;SDS011;12193;42.642;23.384;2022-09-09T07:54:20;9.60;;;7.27;;
6424;SDS011;12193;42.642;23.384;2022-09-09T07:56:52;11.37;;;6.77;;
6424;SDS011;12193;42.642;23.384;2022-09-09T07:59:22;10.73;;;7.33;;
6424;SDS011;12193;42.642;23.384;2022-09-09T08:01:51;15.23;;;7.10;;
6424;SDS011;12193;42.642;23.384;2022-09-09T08:04:22;10.90;;;6.50;;
6424;SDS011;12193;42.642;23.384;2022-09-09T08:06:54;13.90;;;6.93;;
6424;SDS011;12193;42.642;23.384;2022-09-09T08:09:25;10.93;;;6.57;;
6424;SDS011;12193;42.642;23.384;2022-09-09T08:11:58;11.00;;;6.83;;
6424;SDS011;12193;42.642;23.384;2022-09-09T08:14:28;14.30;;;6.20;;
6424;SDS011;12193;42.642;23.384;2022-09-09T08:16:57;10.70;;;6.40;;
6424;SDS011;12193;42.642;23.384;2022-09-09T08:19:26;9.87;;;6.10;;
6424;SDS011;12193;42.642;23.384;2022-09-09T08:21:59;10.40;;;6.80;;
6424;SDS011;12193;42.642;23.384;2022-09-09T08:24:29;9.47;;;6.33;;
6424;SDS011;12193;42.642;23.384;2022-09-09T08:27:01;11.50;;;6.60;;
6424;SDS011;12193;42.642;23.384;2022-09-09T08:29:31;8.40;;;6.00;;
6424;SDS011;12193;42.642;23.384;2022-09-09T08:32:01;11.63;;;6.07;;
6424;SDS011;12193;42.642;23.384;2022-09-09T08:34:30;9.90;;;6.40;;
6424;SDS011;12193;42.642;23.384;2022-09-09T08:37:00;12.73;;;6.40;;
6424;SDS011;12193;42.642;23.384;2022-09-09T08:39:29;11.13;;;6.40;;
6424;SDS011;12193;42.642;23.384;2022-09-09T08:42:08;9.40;;;6.43;;
6424;SDS011;12193;42.642;23.384;2022-09-09T08:44:55;9.73;;;6.53;;
6424;SDS011;12193;42.642;23.384;2022-09-09T08:47:41;8.23;;;6.30;;
6424;SDS011;12193;42.642;23.384;2022-09-09T08:50:22;8.50;;;6.37;;
6424;SDS011;12193;42.642;23.384;2022-09-09T08:52:56;11.10;;;6.20;;
6424;SDS011;12193;42.642;23.384;2022-09-09T08:55:33;13.33;;;6.63;;
6424;SDS011;12193;42.642;23.384;2022-09-09T08:58:13;10.37;;;6.60;;
6424;SDS011;12193;42.642;23.384;2022-09-09T09:00:47;15.83;;;6.73;;
6424;SDS011;12193;42.642;23.384;2022-09-09T09:03:28;9.23;;;6.57;;
6424;SDS011;12193;42.642;23.384;2022-09-09T09:06:09;12.80;;;6.90;;
6424;SDS011;12193;42.642;23.384;2022-09-09T09:08:51;7.57;;;6.27;;
6424;SDS011;12193;42.642;23.384;2022-09-09T09:11:33;9.07;;;6.60;;
6424;SDS011;12193;42.642;23.384;2022-09-09T09:14:10;9.23;;;5.90;;
6424;SDS011;12193;42.642;23.384;2022-09-09T09:16:46;14.27;;;6.57;;
6424;SDS011;12193;42.642;23.384;2022-09-09T09:19:21;8.23;;;6.57;;
6424;SDS011;12193;42.642;23.384;2022-09-09T09:21:53;10.13;;;6.30;;
6424;SDS011;12193;42.642;23.384;2022-09-09T09:24:30;11.53;;;7.23;;
6424;SDS011;12193;42.642;23.384;2022-09-09T09:27:10;11.23;;;7.20;;
6424;SDS011;12193;42.642;23.384;2022-09-09T09:29:44;12.07;;;6.67;;
6424;SDS011;12193;42.642;23.384;2022-09-09T09:32:16;10.60;;;6.80;;
6424;SDS011;12193;42.642;23.384;2022-09-09T09:34:49;10.47;;;6.27;;
6424;SDS011;12193;42.642;23.384;2022-09-09T09:37:23;16.30;;;7.27;;
6424;SDS011;12193;42.642;23.384;2022-09-09T09:40:06;13.77;;;6.60;;
6424;SDS011;12193;42.642;23.384;2022-09-09T09:42:37;8.80;;;6.67;;
6424;SDS011;12193;42.642;23.384;2022-09-09T09:45:20;11.80;;;6.87;;
6424;SDS011;12193;42.642;23.384;2022-09-09T09:47:57;10.47;;;6.70;;
6424;SDS011;12193;42.642;23.384;2022-09-09T09:50:28;11.10;;;6.90;;
6424;SDS011;12193;42.642;23.384;2022-09-09T09:52:59;11.17;;;6.87;;
6424;SDS011;12193;42.642;23.384;2022-09-09T09:55:30;12.37;;;7.23;;
6424;SDS011;12193;42.642;23.384;2022-09-09T09:58:03;11.30;;;6.60;;
6424;SDS011;12193;42.642;23.384;2022-09-09T10:00:36;13.97;;;6.90;;
6424;SDS011;12193;42.642;23.384;2022-09-09T10:03:20;10.00;;;6.63;;
6424;SDS011;12193;42.642;23.384;2022-09-09T10:05:52;13.47;;;6.70;;
6424;SDS011;12193;42.642;23.384;2022-09-09T10:08:22;10.27;;;6.80;;
6424;SDS011;12193;42.642;23.384;2022-09-09T10:13:50;13.50;;;7.13;;
6424;SDS011;12193;42.642;23.384;2022-09-09T10:16:34;16.07;;;7.10;;
6424;SDS011;12193;42.642;23.384;2022-09-09T10:19:13;12.97;;;6.70;;
6424;SDS011;12193;42.642;23.384;2022-09-09T10:21:48;10.07;;;6.13;;
6424;SDS011;12193;42.642;23.384;2022-09-09T10:27:21;13.43;;;7.00;;
6424;SDS011;12193;42.642;23.384;2022-09-09T10:29:59;12.97;;;6.47;;
6424;SDS011;12193;42.642;23.384;2022-09-09T10:32:44;19.47;;;6.90;;
6424;SDS011;12193;42.642;23.384;2022-09-09T10:35:23;32.80;;;7.97;;
6424;SDS011;12193;42.642;23.384;2022-09-09T10:38:03;15.77;;;7.10;;
6424;SDS011;12193;42.642;23.384;2022-09-09T10:40:44;13.63;;;7.33;;
6424;SDS011;12193;42.642;23.384;2022-09-09T10:43:35;9.20;;;7.00;;
6424;SDS011;12193;42.642;23.384;2022-09-09T10:46:14;13.47;;;7.30;;
6424;SDS011;12193;42.642;23.384;2022-09-09T10:48:59;15.13;;;8.00;;
6424;SDS011;12193;42.642;23.384;2022-09-09T10:51:37;20.10;;;7.87;;
6424;SDS011;12193;42.642;23.384;2022-09-09T10:54:19;12.70;;;7.10;;
6424;SDS011;12193;42.642;23.384;2022-09-09T10:56:58;21.23;;;8.33;;
6424;SDS011;12193;42.642;23.384;2022-09-09T10:59:33;13.67;;;7.77;;
6424;SDS011;12193;42.642;23.384;2022-09-09T11:02:10;20.53;;;7.90;;
6424;SDS011;12193;42.642;23.384;2022-09-09T11:04:48;14.53;;;7.30;;
6424;SDS011;12193;42.642;23.384;2022-09-09T11:07:24;11.97;;;7.80;;
6424;SDS011;12193;42.642;23.384;2022-09-09T11:10:02;14.87;;;7.57;;
6424;SDS011;12193;42.642;23.384;2022-09-09T11:12:35;17.07;;;7.80;;
6424;SDS011;12193;42.642;23.384;2022-09-09T11:15:12;15.07;;;7.93;;
6424;SDS011;12193;42.642;23.384;2022-09-09T11:17:49;10.83;;;7.20;;
6424;SDS011;12193;42.642;23.384;2022-09-09T11:20:25;14.13;;;7.33;;
6424;SDS011;12193;42.642;23.384;2022-09-09T11:22:55;16.93;;;7.70;;
6424;SDS011;12193;42.642;23.384;2022-09-09T11:25:31;15.77;;;7.73;;
6424;SDS011;12193;42.642;23.384;2022-09-09T11:31:00;22.37;;;7.83;;
6424;SDS011;12193;42.642;23.384;2022-09-09T11:33:51;11.67;;;7.13;;
6424;SDS011;12193;42.642;23.384;2022-09-09T11:36:47;11.60;;;7.57;;
6424;SDS011;12193;42.642;23.384;2022-09-09T11:39:37;14.93;;;7.83;;
6424;SDS011;12193;42.642;23.384;2022-09-09T11:42:21;9.77;;;7.40;;
6424;SDS011;12193;42.642;23.384;2022-09-09T11:44:52;11.07;;;7.53;;
6424;SDS011;12193;42.642;23.384;2022-09-09T11:47:23;15.20;;;7.70;;
6424;SDS011;12193;42.642;23.384;2022-09-09T11:50:06;17.77;;;7.93;;
6424;SDS011;12193;42.642;23.384;2022-09-09T11:52:41;16.47;;;8.00;;
6424;SDS011;12193;42.642;23.384;2022-09-09T11:55:24;14.87;;;7.63;;
6424;SDS011;12193;42.642;23.384;2022-09-09T11:57:57;18.03;;;7.90;;
6424;SDS011;12193;42.642;23.384;2022-09-09T12:00:29;12.80;;;8.13;;
6424;SDS011;12193;42.642;23.384;2022-09-09T12:03:03;13.60;;;9.03;;
6424;SDS011;12193;42.642;23.384;2022-09-09T12:05:35;12.27;;;8.13;;
6424;SDS011;12193;42.642;23.384;2022-09-09T12:08:10;10.00;;;7.47;;
6424;SDS011;12193;42.642;23.384;2022-09-09T12:10:52;15.17;;;8.23;;
6424;SDS011;12193;42.642;23.384;2022-09-09T12:13:23;13.53;;;8.23;;
6424;SDS011;12193;42.642;23.384;2022-09-09T12:15:54;11.17;;;7.80;;
6424;SDS011;12193;42.642;23.384;2022-09-09T12:18:26;16.83;;;8.63;;
6424;SDS011;12193;42.642;23.384;2022-09-09T12:21:03;12.90;;;7.67;;
6424;SDS011;12193;42.642;23.384;2022-09-09T12:23:41;16.57;;;8.17;;
6424;SDS011;12193;42.642;23.384;2022-09-09T12:26:21;13.13;;;8.40;;
6424;SDS011;12193;42.642;23.384;2022-09-09T12:29:02;10.37;;;7.73;;
6424;SDS011;12193;42.642;23.384;2022-09-09T12:31:41;16.50;;;8.57;;
6424;SDS011;12193;42.642;23.384;2022-09-09T12:34:15;20.60;;;8.43;;
6424;SDS011;12193;42.642;23.384;2022-09-09T12:36:51;18.10;;;9.13;;
6424;SDS011;12193;42.642;23.384;2022-09-09T12:39:31;13.57;;;8.57;;
6424;SDS011;12193;42.642;23.384;2022-09-09T12:42:04;19.17;;;9.30;;
6424;SDS011;12193;42.642;23.384;2022-09-09T12:44:33;15.30;;;9.00;;
6424;SDS011;12193;42.642;23.384;2022-09-09T12:47:03;15.63;;;9.10;;
6424;SDS011;12193;42.642;23.384;2022-09-09T12:49:33;17.10;;;8.77;;
6424;SDS011;12193;42.642;23.384;2022-09-09T12:52:07;18.47;;;8.77;;
6424;SDS011;12193;42.642;23.384;2022-09-09T12:54:46;15.53;;;8.97;;
6424;SDS011;12193;42.642;23.384;2022-09-09T12:57:17;16.23;;;8.57;;
6424;SDS011;12193;42.642;23.384;2022-09-09T12:59:46;11.23;;;8.27;;
6424;SDS011;12193;42.642;23.384;2022-09-09T13:02:20;15.20;;;8.43;;
6424;SDS011;12193;42.642;23.384;2022-09-09T13:04:51;15.03;;;8.70;;
6424;SDS011;12193;42.642;23.384;2022-09-09T13:07:21;11.50;;;7.93;;
6424;SDS011;12193;42.642;23.384;2022-09-09T13:09:55;28.90;;;9.60;;
6424;SDS011;12193;42.642;23.384;2022-09-09T13:12:25;15.67;;;8.80;;
6424;SDS011;12193;42.642;23.384;2022-09-09T13:14:55;12.53;;;8.07;;
6424;SDS011;12193;42.642;23.384;2022-09-09T13:17:26;14.17;;;8.53;;
6424;SDS011;12193;42.642;23.384;2022-09-09T13:19:56;17.07;;;8.63;;
6424;SDS011;12193;42.642;23.384;2022-09-09T13:22:28;15.23;;;8.90;;
6424;SDS011;12193;42.642;23.384;2022-09-09T13:25:13;18.37;;;8.97;;
6424;SDS011;12193;42.642;23.384;2022-09-09T13:27:54;14.40;;;8.40;;
6424;SDS011;12193;42.642;23.384;2022-09-09T13:30:27;12.60;;;8.17;;
6424;SDS011;12193;42.642;23.384;2022-09-09T13:32:59;12.23;;;8.23;;
6424;SDS011;12193;42.642;23.384;2022-09-09T13:35:33;19.53;;;8.80;;
6424;SDS011;12193;42.642;23.384;2022-09-09T13:38:07;14.50;;;8.60;;
6424;SDS011;12193;42.642;23.384;2022-09-09T13:40:40;15.43;;;8.37;;
6424;SDS011;12193;42.642;23.384;2022-09-09T13:43:22;15.37;;;8.60;;
6424;SDS011;12193;42.642;23.384;2022-09-09T13:45:54;14.27;;;8.67;;
6424;SDS011;12193;42.642;23.384;2022-09-09T13:48:25;17.37;;;9.10;;
6424;SDS011;12193;42.642;23.384;2022-09-09T13:50:57;15.37;;;8.70;;
6424;SDS011;12193;42.642;23.384;2022-09-09T13:53:27;13.90;;;8.93;;
6424;SDS011;12193;42.642;23.384;2022-09-09T13:56:00;15.33;;;8.70;;
6424;SDS011;12193;42.642;23.384;2022-09-09T13:58:29;15.07;;;9.37;;
6424;SDS011;12193;42.642;23.384;2022-09-09T14:00:59;13.47;;;8.77;;
6424;SDS011;12193;42.642;23.384;2022-09-09T14:03:28;14.40;;;8.13;;
6424;SDS011;12193;42.642;23.384;2022-09-09T14:05:57;14.07;;;8.40;;
6424;SDS011;12193;42.642;23.384;2022-09-09T14:08:27;14.10;;;8.90;;
6424;SDS011;12193;42.642;23.384;2022-09-09T14:11:05;18.63;;;8.70;;
6424;SDS011;12193;42.642;23.384;2022-09-09T14:13:39;13.93;;;8.47;;
6424;SDS011;12193;42.642;23.384;2022-09-09T14:16:09;16.00;;;8.77;;
6424;SDS011;12193;42.642;23.384;2022-09-09T14:18:38;19.60;;;8.50;;
6424;SDS011;12193;42.642;23.384;2022-09-09T14:21:07;17.53;;;8.30;;
6424;SDS011;12193;42.642;23.384;2022-09-09T14:23:37;14.17;;;8.30;;
6424;SDS011;12193;42.642;23.384;2022-09-09T14:26:09;14.87;;;8.90;;
6424;SDS011;12193;42.642;23.384;2022-09-09T14:28:39;14.00;;;8.23;;
6424;SDS011;12193;42.642;23.384;2022-09-09T14:31:09;16.17;;;8.80;;
6424;SDS011;12193;42.642;23.384;2022-09-09T14:33:39;12.77;;;8.27;;
6424;SDS011;12193;42.642;23.384;2022-09-09T14:36:08;16.57;;;8.17;;
6424;SDS011;12193;42.642;23.384;2022-09-09T14:38:38;15.73;;;9.23;;
6424;SDS011;12193;42.642;23.384;2022-09-09T14:41:11;17.73;;;8.53;;
6424;SDS011;12193;42.642;23.384;2022-09-09T14:43:44;13.67;;;7.97;;
6424;SDS011;12193;42.642;23.384;2022-09-09T14:46:14;15.30;;;8.60;;
6424;SDS011;12193;42.642;23.384;2022-09-09T14:48:44;12.70;;;8.73;;
6424;SDS011;12193;42.642;23.384;2022-09-09T14:51:15;23.23;;;8.67;;
6424;SDS011;12193;42.642;23.384;2022-09-09T14:53:50;14.40;;;9.00;;
6424;SDS011;12193;42.642;23.384;2022-09-09T14:56:25;15.13;;;7.93;;
6424;SDS011;12193;42.642;23.384;2022-09-09T14:58:56;14.93;;;8.70;;
6424;SDS011;12193;42.642;23.384;2022-09-09T15:01:27;13.30;;;8.33;;
6424;SDS011;12193;42.642;23.384;2022-09-09T15:03:58;22.70;;;9.00;;
6424;SDS011;12193;42.642;23.384;2022-09-09T15:06:29;13.77;;;8.67;;
6424;SDS011;12193;42.642;23.384;2022-09-09T15:09:00;11.37;;;8.77;;
6424;SDS011;12193;42.642;23.384;2022-09-09T15:11:34;16.93;;;8.67;;
6424;SDS011;12193;42.642;23.384;2022-09-09T15:14:05;18.97;;;9.63;;
6424;SDS011;12193;42.642;23.384;2022-09-09T15:16:36;17.17;;;9.13;;
6424;SDS011;12193;42.642;23.384;2022-09-09T15:19:07;21.00;;;10.30;;
6424;SDS011;12193;42.642;23.384;2022-09-09T15:21:37;20.50;;;9.10;;
6424;SDS011;12193;42.642;23.384;2022-09-09T15:24:06;16.60;;;9.60;;
6424;SDS011;12193;42.642;23.384;2022-09-09T15:26:39;24.97;;;10.87;;
6424;SDS011;12193;42.642;23.384;2022-09-09T15:29:08;17.00;;;9.50;;
6424;SDS011;12193;42.642;23.384;2022-09-09T15:31:38;16.60;;;9.93;;
6424;SDS011;12193;42.642;23.384;2022-09-09T15:34:07;17.70;;;10.47;;
6424;SDS011;12193;42.642;23.384;2022-09-09T15:36:37;19.13;;;9.70;;
6424;SDS011;12193;42.642;23.384;2022-09-09T15:39:09;18.57;;;9.27;;
6424;SDS011;12193;42.642;23.384;2022-09-09T15:41:44;26.00;;;9.43;;
6424;SDS011;12193;42.642;23.384;2022-09-09T15:44:14;20.97;;;9.50;;
6424;SDS011;12193;42.642;23.384;2022-09-09T15:46:45;20.37;;;9.70;;
6424;SDS011;12193;42.642;23.384;2022-09-09T15:49:17;24.70;;;10.07;;
6424;SDS011;12193;42.642;23.384;2022-09-09T15:51:50;22.57;;;9.20;;
6424;SDS011;12193;42.642;23.384;2022-09-09T15:54:21;31.13;;;10.37;;
6424;SDS011;12193;42.642;23.384;2022-09-09T15:56:55;20.97;;;9.33;;
6424;SDS011;12193;42.642;23.384;2022-09-09T15:59:26;19.70;;;9.90;;
6424;SDS011;12193;42.642;23.384;2022-09-09T16:01:57;25.90;;;9.93;;
6424;SDS011;12193;42.642;23.384;2022-09-09T16:04:27;18.77;;;9.57;;
6424;SDS011;12193;42.642;23.384;2022-09-09T16:06:57;18.33;;;9.33;;
6424;SDS011;12193;42.642;23.384;2022-09-09T16:09:28;26.80;;;10.33;;
6424;SDS011;12193;42.642;23.384;2022-09-09T16:12:01;16.90;;;9.67;;
6424;SDS011;12193;42.642;23.384;2022-09-09T16:14:32;14.13;;;9.83;;
6424;SDS011;12193;42.642;23.384;2022-09-09T16:17:02;17.83;;;9.80;;
6424;SDS011;12193;42.642;23.384;2022-09-09T16:19:32;16.03;;;9.80;;
6424;SDS011;12193;42.642;23.384;2022-09-09T16:22:01;21.27;;;11.27;;
6424;SDS011;12193;42.642;23.384;2022-09-09T16:24:32;16.60;;;10.67;;
6424;SDS011;12193;42.642;23.384;2022-09-09T16:27:04;20.03;;;10.10;;
6424;SDS011;12193;42.642;23.384;2022-09-09T16:29:33;20.47;;;11.37;;
6424;SDS011;12193;42.642;23.384;2022-09-09T16:32:03;22.83;;;10.77;;
6424;SDS011;12193;42.642;23.384;2022-09-09T16:34:34;19.80;;;10.40;;
6424;SDS011;12193;42.642;23.384;2022-09-09T16:37:03;15.03;;;9.10;;
6424;SDS011;12193;42.642;23.384;2022-09-09T16:39:32;16.73;;;8.40;;
6424;SDS011;12193;42.642;23.384;2022-09-09T16:42:04;20.90;;;9.90;;
6424;SDS011;12193;42.642;23.384;2022-09-09T16:44:35;18.87;;;10.27;;
6424;SDS011;12193;42.642;23.384;2022-09-09T16:47:04;21.70;;;9.97;;
6424;SDS011;12193;42.642;23.384;2022-09-09T16:49:33;22.07;;;10.10;;
6424;SDS011;12193;42.642;23.384;2022-09-09T16:52:02;23.97;;;14.17;;
6424;SDS011;12193;42.642;23.384;2022-09-09T16:54:31;21.13;;;11.53;;
6424;SDS011;12193;42.642;23.384;2022-09-09T16:57:01;20.90;;;12.20;;
6424;SDS011;12193;42.642;23.384;2022-09-09T16:59:33;16.67;;;9.63;;
6424;SDS011;12193;42.642;23.384;2022-09-09T17:02:02;12.83;;;9.33;;
6424;SDS011;12193;42.642;23.384;2022-09-09T17:04:32;17.30;;;9.20;;
6424;SDS011;12193;42.642;23.384;2022-09-09T17:07:02;13.87;;;9.03;;
6424;SDS011;12193;42.642;23.384;2022-09-09T17:09:31;14.87;;;8.73;;
6424;SDS011;12193;42.642;23.384;2022-09-09T17:12:01;17.67;;;10.57;;
6424;SDS011;12193;42.642;23.384;2022-09-09T17:14:34;15.97;;;9.47;;
6424;SDS011;12193;42.642;23.384;2022-09-09T17:17:04;14.40;;;8.10;;
6424;SDS011;12193;42.642;23.384;2022-09-09T17:19:33;14.03;;;9.27;;
6424;SDS011;12193;42.642;23.384;2022-09-09T17:22:02;16.63;;;9.00;;
6424;SDS011;12193;42.642;23.384;2022-09-09T17:24:31;13.30;;;7.90;;
6424;SDS011;12193;42.642;23.384;2022-09-09T17:27:01;15.10;;;8.77;;
6424;SDS011;12193;42.642;23.384;2022-09-09T17:29:33;16.83;;;9.30;;
6424;SDS011;12193;42.642;23.384;2022-09-09T17:32:02;13.23;;;8.17;;
6424;SDS011;12193;42.642;23.384;2022-09-09T17:34:33;16.50;;;7.40;;
6424;SDS011;12193;42.642;23.384;2022-09-09T17:37:03;15.90;;;8.70;;
6424;SDS011;12193;42.642;23.384;2022-09-09T17:39:33;13.93;;;8.67;;
6424;SDS011;12193;42.642;23.384;2022-09-09T17:42:05;17.27;;;9.00;;
6424;SDS011;12193;42.642;23.384;2022-09-09T17:44:35;18.20;;;9.70;;
6424;SDS011;12193;42.642;23.384;2022-09-09T17:47:06;20.57;;;9.73;;
6424;SDS011;12193;42.642;23.384;2022-09-09T17:49:35;24.70;;;11.00;;
6424;SDS011;12193;42.642;23.384;2022-09-09T17:52:04;21.30;;;10.60;;
6424;SDS011;12193;42.642;23.384;2022-09-09T17:54:34;18.03;;;10.10;;
6424;SDS011;12193;42.642;23.384;2022-09-09T17:57:05;16.30;;;10.20;;
6424;SDS011;12193;42.642;23.384;2022-09-09T17:59:35;18.73;;;10.33;;
6424;SDS011;12193;42.642;23.384;2022-09-09T18:02:04;17.07;;;9.97;;
6424;SDS011;12193;42.642;23.384;2022-09-09T18:04:34;19.67;;;9.27;;
6424;SDS011;12193;42.642;23.384;2022-09-09T18:07:04;18.50;;;9.37;;
6424;SDS011;12193;42.642;23.384;2022-09-09T18:09:33;17.83;;;10.47;;
6424;SDS011;12193;42.642;23.384;2022-09-09T18:12:06;16.30;;;9.90;;